Time;durP1;ratioP1;P1;durP2;ratioP2;P2;SDS_P1;SDS_P2;PMS_P1;PMS_P2;Temp;Humidity;BMP_temperature;BMP_pressure;BME280_temperature;BME280_humidity;BME280_pressure;Samples;Min_cycle;Max_cycle;Signal;HPM_P1;HPM_P2
2022/05/15 00:04:03;;;;;;;3.67;3.10;;;;;;;18.07;47.90;100476.28;10373910;28;20091;-63
2022/05/15 00:09:05;;;;;;;4.65;3.20;;;;;;;18.23;48.78;100486.25;10371082;28;20077;-64
2022/05/15 00:14:06;;;;;;;6.05;3.40;;;;;;;18.04;47.99;100449.69;10373535;28;20063;-64
2022/05/15 00:19:09;;;;;;;5.20;3.40;;;;;;;17.97;47.94;100449.50;10373045;28;20132;-64
2022/05/15 00:24:10;;;;;;;9.07;3.97;;;;;;;18.17;48.48;100483.19;10373871;28;20315;-65
2022/05/15 00:29:12;;;;;;;8.23;3.85;;;;;;;18.11;48.13;100477.66;10373950;28;20595;-63
2022/05/15 00:34:14;;;;;;;8.85;4.15;;;;;;;18.05;48.53;100473.78;10371266;28;20095;-64
2022/05/15 00:39:17;;;;;;;6.70;4.07;;;;;;;17.99;48.37;100469.88;10370211;28;20053;-64
2022/05/15 00:44:18;;;;;;;10.33;4.40;;;;;;;17.97;49.16;100471.06;10372933;28;20042;-64
2022/05/15 00:49:19;;;;;;;7.18;4.05;;;;;;;17.84;48.96;100460.75;10373413;28;20419;-63
2022/05/15 00:54:55;;;;;;;7.00;4.43;;;;;;;17.89;48.66;100462.94;10378460;28;20104;-66
2022/05/15 01:00:05;;;;;;;9.10;4.32;;;;;;;17.82;48.88;100468.16;10375287;28;20242;-64
2022/05/15 01:05:12;;;;;;;6.72;3.90;;;;;;;17.76;49.46;100463.41;10374455;28;20460;-64
2022/05/15 01:10:14;;;;;;;7.65;3.78;;;;;;;17.63;48.97;100448.59;10373576;28;20049;-64
2022/05/15 01:15:23;;;;;;;8.85;4.10;;;;;;;17.73;49.57;100466.44;10371920;28;20060;-64
2022/05/15 01:20:27;;;;;;;7.53;3.92;;;;;;;17.70;49.36;100466.78;10373911;28;20053;-63
2022/05/15 01:25:34;;;;;;;6.20;4.22;;;;;;;17.64;49.69;100461.06;10377670;28;20142;-63
2022/05/15 01:30:38;;;;;;;5.85;4.00;;;;;;;17.63;49.54;100467.44;10367259;28;20045;-63
2022/05/15 01:35:40;;;;;;;9.07;4.32;;;;;;;17.58;49.69;100461.72;10377338;28;20071;-65
2022/05/15 01:40:42;;;;;;;8.27;4.13;;;;;;;17.52;50.17;100459.69;10376014;28;20083;-64
2022/05/15 01:45:43;;;;;;;5.28;3.95;;;;;;;17.53;49.96;100458.66;10377180;28;20262;-64
2022/05/15 01:50:45;;;;;;;7.20;3.85;;;;;;;17.49;49.79;100462.72;10377687;28;20048;-64
2022/05/15 01:55:46;;;;;;;5.30;4.32;;;;;;;17.44;49.97;100465.03;10377455;28;20268;-65
2022/05/15 02:00:48;;;;;;;6.15;4.15;;;;;;;17.42;50.16;100467.06;10375597;28;20055;-64
2022/05/15 02:05:50;;;;;;;7.53;4.40;;;;;;;17.37;50.33;100474.75;10378462;28;20065;-64
2022/05/15 02:10:52;;;;;;;6.10;4.13;;;;;;;17.36;49.97;100473.09;10376418;28;20059;-64
2022/05/15 02:15:53;;;;;;;7.38;4.07;;;;;;;17.27;50.19;100464.97;10377672;28;20365;-64
2022/05/15 02:20:55;;;;;;;7.43;4.30;;;;;;;17.25;50.58;100461.59;10376106;28;20339;-65
2022/05/15 02:25:56;;;;;;;5.05;4.03;;;;;;;17.24;50.50;100457.22;10375806;28;20050;-67
2022/05/15 02:30:58;;;;;;;6.05;3.75;;;;;;;17.20;50.80;100460.41;10378126;28;20536;-63
2022/05/15 02:36:06;;;;;;;7.22;4.00;;;;;;;17.20;51.01;100458.53;10377451;28;20060;-64
2022/05/15 02:41:08;;;;;;;9.77;4.20;;;;;;;17.14;50.96;100460.06;10375356;28;20080;-65
2022/05/15 02:46:09;;;;;;;8.43;4.82;;;;;;;17.14;51.52;100459.19;10375372;28;20124;-64
2022/05/15 02:51:11;;;;;;;8.10;4.18;;;;;;;17.06;51.00;100457.31;10372847;28;20440;-64
2022/05/15 02:56:28;;;;;;;7.07;4.45;;;;;;;17.05;51.42;100466.38;10375254;28;20080;-64
2022/05/15 03:01:35;;;;;;;5.35;3.80;;;;;;;17.03;51.21;100467.56;10374276;28;20415;-63
2022/05/15 03:06:36;;;;;;;7.63;3.95;;;;;;;16.96;51.53;100456.59;10374722;28;20215;-64
2022/05/15 03:11:38;;;;;;;7.65;4.20;;;;;;;16.91;52.05;100458.94;10373393;28;20190;-64
2022/05/15 03:16:40;;;;;;;6.15;3.90;;;;;;;16.86;51.89;100466.56;10374759;28;20045;-64
2022/05/15 03:21:42;;;;;;;7.53;3.90;;;;;;;16.82;52.19;100465.22;10388902;28;20140;-63
2022/05/15 03:26:46;;;;;;;6.55;4.65;;;;;;;16.75;52.49;100460.50;10373806;28;20121;-65
2022/05/15 03:31:47;;;;;;;;;;;;;;;16.71;52.37;100469.00;10375260;28;20229;-64
2022/05/15 03:36:51;;;;;;;9.98;4.30;;;;;;;16.65;52.75;100464.25;10374526;28;19931;-65
2022/05/15 03:41:52;;;;;;;7.25;4.80;;;;;;;16.61;53.00;100469.13;10372623;28;20654;-64
2022/05/15 03:46:54;;;;;;;7.55;4.38;;;;;;;16.57;52.81;100481.19;10371457;28;20461;-64
2022/05/15 03:51:55;;;;;;;8.57;5.15;;;;;;;16.48;52.74;100468.69;10373103;28;20049;-65
2022/05/15 03:56:57;;;;;;;9.10;4.38;;;;;;;16.31;53.05;100440.88;10372057;28;20053;-64
2022/05/15 04:01:59;;;;;;;6.85;5.00;;;;;;;16.52;52.81;100478.13;10371027;28;20552;-65
2022/05/15 04:07:01;;;;;;;7.88;4.45;;;;;;;16.55;53.52;100486.72;10372396;28;20045;-64
2022/05/15 04:12:03;;;;;;;9.95;5.47;;;;;;;16.54;53.19;100493.09;10371823;28;20053;-64
2022/05/15 04:17:05;;;;;;;6.88;4.70;;;;;;;16.49;53.57;100492.72;10373617;28;20872;-65
2022/05/15 04:22:07;;;;;;;6.38;4.45;;;;;;;16.41;53.59;100489.97;10370816;28;20053;-64
2022/05/15 04:27:08;;;;;;;8.05;5.00;;;;;;;16.43;54.06;100486.13;10370761;28;20054;-63
2022/05/15 04:32:10;;;;;;;7.68;5.32;;;;;;;16.45;54.34;100496.72;10370884;28;20424;-65
2022/05/15 04:37:11;;;;;;;9.93;5.43;;;;;;;16.40;54.13;100488.28;10373136;28;20080;-64
2022/05/15 04:42:12;;;;;;;6.30;4.28;;;;;;;16.44;53.71;100495.03;10372987;28;20053;-63
2022/05/15 04:47:14;;;;;;;9.07;4.45;;;;;;;16.25;54.58;100470.03;10368792;28;20049;-65
2022/05/15 04:52:15;;;;;;;7.85;4.93;;;;;;;16.28;54.30;100460.00;10370744;28;20423;-64
2022/05/15 04:57:17;;;;;;;9.68;4.90;;;;;;;16.44;54.52;100495.88;10369223;28;20476;-65
2022/05/15 05:02:18;;;;;;;7.13;5.00;;;;;;;16.43;54.78;100487.97;10373597;28;20140;-64
2022/05/15 05:07:20;;;;;;;8.48;5.15;;;;;;;16.46;54.51;100493.03;10370355;28;20686;-63
2022/05/15 05:12:22;;;;;;;7.72;5.20;;;;;;;16.45;54.16;100491.34;10376310;28;20052;-64
2022/05/15 05:17:24;;;;;;;9.48;5.22;;;;;;;16.52;54.87;100513.91;10369348;28;20263;-64
2022/05/15 05:22:26;;;;;;;7.75;5.18;;;;;;;16.36;54.64;100470.78;10371310;28;20052;-65
2022/05/15 05:27:27;;;;;;;5.65;4.57;;;;;;;16.60;55.00;100502.38;10372040;28;20484;-65
2022/05/15 05:32:29;;;;;;;8.55;4.75;;;;;;;16.52;54.22;100476.28;10372628;28;20136;-65
2022/05/15 05:37:30;;;;;;;8.18;5.82;;;;;;;16.75;54.50;100508.00;10370348;28;20156;-64
2022/05/15 05:42:31;;;;;;;5.85;4.72;;;;;;;16.89;54.63;100526.28;10369692;28;20057;-64
2022/05/15 05:47:34;;;;;;;5.72;4.10;;;;;;;16.95;54.68;100531.03;10380455;28;20144;-64
2022/05/15 05:52:37;;;;;;;6.90;4.90;;;;;;;17.11;54.59;100533.00;10368557;28;20172;-64
2022/05/15 05:57:39;;;;;;;5.40;3.97;;;;;;;17.24;53.81;100535.22;10368687;28;20140;-65
2022/05/15 06:02:41;;;;;;;8.63;4.82;;;;;;;17.38;54.05;100535.63;10368988;28;20211;-64
2022/05/15 06:07:42;;;;;;;6.75;4.63;;;;;;;17.51;54.27;100530.66;10370013;28;20496;-65
2022/05/15 06:12:44;;;;;;;10.77;5.47;;;;;;;17.59;54.10;100533.34;10366942;28;20057;-64
2022/05/15 06:17:45;;;;;;;7.00;4.53;;;;;;;17.66;52.36;100534.41;10371516;28;20053;-65
2022/05/15 06:22:47;;;;;;;6.25;3.83;;;;;;;17.75;52.35;100534.44;10377988;28;20057;-65
2022/05/15 06:27:48;;;;;;;6.03;3.47;;;;;;;17.88;51.47;100542.91;10375940;28;20152;-64
2022/05/15 06:32:50;;;;;;;4.95;3.35;;;;;;;18.09;50.69;100538.91;10375853;28;20049;-63
2022/05/15 06:37:51;;;;;;;6.18;3.75;;;;;;;18.20;50.20;100530.53;10376144;28;20148;-65
2022/05/15 06:42:52;;;;;;;5.80;3.10;;;;;;;18.31;50.18;100516.72;10374625;28;20053;-63
2022/05/15 06:47:54;;;;;;;7.45;3.53;;;;;;;18.47;49.59;100525.84;10376433;28;20057;-65
2022/05/15 06:52:56;;;;;;;6.25;3.70;;;;;;;18.50;49.80;100525.50;10375523;28;20581;-65
2022/05/15 06:57:57;;;;;;;3.72;2.85;;;;;;;18.69;49.44;100527.84;10376356;28;20042;-64
2022/05/15 07:02:59;;;;;;;7.00;2.97;;;;;;;18.89;48.86;100514.84;10374649;28;20045;-64
2022/05/15 07:08:00;;;;;;;5.70;3.20;;;;;;;19.01;48.84;100507.25;10373868;28;20238;-62
2022/05/15 07:13:02;;;;;;;5.43;4.03;;;;;;;19.45;48.63;100518.56;10375867;28;20117;-64
2022/05/15 07:18:07;;;;;;;6.03;2.72;;;;;;;19.66;48.10;100521.50;10376909;28;20224;-64
2022/05/15 07:23:09;;;;;;;6.20;3.25;;;;;;;19.65;47.30;100492.84;10379449;28;20656;-65
2022/05/15 07:28:10;;;;;;;4.55;2.83;;;;;;;19.91;47.38;100518.72;10373991;28;20143;-64
2022/05/15 07:33:12;;;;;;;4.10;3.22;;;;;;;19.88;47.15;100519.91;10371660;28;20045;-65
2022/05/15 07:38:14;;;;;;;3.50;2.78;;;;;;;20.00;47.13;100524.91;10373667;28;20053;-64
2022/05/15 07:43:15;;;;;;;4.30;2.88;;;;;;;19.63;46.99;100459.75;10371625;28;20707;-64
2022/05/15 07:48:17;;;;;;;4.88;2.95;;;;;;;20.26;46.80;100511.88;10373500;28;20815;-64
2022/05/15 07:53:18;;;;;;;5.22;2.40;;;;;;;20.57;46.04;100507.41;10373453;28;20423;-64
2022/05/15 07:58:20;;;;;;;6.22;3.70;;;;;;;20.74;45.66;100497.31;10373100;28;20447;-64
2022/05/15 08:03:21;;;;;;;5.65;3.00;;;;;;;21.04;45.10;100510.88;10373368;28;20462;-63
2022/05/15 08:08:23;;;;;;;5.05;3.38;;;;;;;21.15;45.03;100500.41;10374223;28;20564;-63
2022/05/15 08:13:26;;;;;;;4.68;2.40;;;;;;;21.44;44.63;100501.41;10384033;28;20148;-64
2022/05/15 08:23:57;;;;;;;4.57;2.53;;;;;;;21.77;43.84;100509.13;10373212;28;20490;-64
2022/05/15 08:28:59;;;;;;;4.88;2.75;;;;;;;21.81;43.71;100496.91;10360426;28;20590;-63
2022/05/15 08:34:00;;;;;;;4.70;2.75;;;;;;;22.18;43.30;100494.97;10374244;28;20133;-66
2022/05/15 08:39:03;;;;;;;7.60;3.15;;;;;;;22.39;42.58;100477.88;10373698;28;20500;-64
2022/05/15 08:44:12;;;;;;;5.13;2.55;;;;;;;22.71;42.47;100488.34;10374470;28;20068;-64
2022/05/15 08:49:38;;;;;;;6.80;2.50;;;;;;;22.94;41.98;100493.50;10370147;28;20152;-64
2022/05/15 08:55:01;;;;;;;3.25;2.42;;;;;;;23.07;41.67;100492.75;10371814;28;20080;-65
2022/05/15 09:00:10;;;;;;;4.35;2.33;;;;;;;23.06;42.05;100497.34;10372577;28;20056;-63
2022/05/15 09:05:14;;;;;;;5.18;2.80;;;;;;;23.25;41.65;100462.38;10369219;28;20045;-65
2022/05/15 09:10:42;;;;;;;5.50;2.50;;;;;;;23.82;40.28;100484.72;10371386;28;20840;-65
2022/05/15 09:16:01;;;;;;;7.13;2.50;;;;;;;24.17;39.28;100481.91;10370597;28;20136;-64
2022/05/15 09:21:08;;;;;;;4.25;1.90;;;;;;;24.31;39.61;100450.94;10371111;28;20530;-64
2022/05/15 09:26:19;;;;;;;5.53;2.22;;;;;;;24.81;38.29;100476.88;10371217;28;20329;-61
2022/05/15 09:31:26;;;;;;;4.47;2.38;;;;;;;25.13;36.41;100474.28;10371900;28;20292;-63
2022/05/15 09:36:33;;;;;;;6.60;2.10;;;;;;;25.41;37.18;100474.00;10370993;28;20053;-64
2022/05/15 09:47:22;;;;;;;3.20;2.00;;;;;;;25.39;37.30;100468.78;10368700;28;20209;-64
2022/05/15 09:52:32;;;;;;;4.80;1.90;;;;;;;25.67;36.54;100464.88;10372161;28;20587;-63
2022/05/15 09:57:35;;;;;;;4.40;2.10;;;;;;;25.68;36.11;100452.91;10393969;28;20067;-65
2022/05/15 10:02:43;;;;;;;4.18;2.38;;;;;;;25.90;35.29;100452.59;10388925;28;20440;-65
2022/05/15 10:08:01;;;;;;;5.63;1.90;;;;;;;26.24;34.80;100455.91;10379161;28;20512;-65
2022/05/15 10:13:18;;;;;;;2.90;1.80;;;;;;;26.56;33.70;100428.56;10379621;28;20076;-63
2022/05/15 10:18:30;;;;;;;2.78;1.73;;;;;;;26.12;34.39;100428.50;10380151;28;20129;-64
2022/05/15 10:23:53;;;;;;;6.05;2.17;;;;;;;27.08;31.44;100442.75;10376538;28;20077;-63
2022/05/15 10:29:04;;;;;;;8.15;2.65;;;;;;;27.54;31.30;100434.22;10377771;28;20061;-65
2022/05/15 10:34:14;;;;;;;4.28;1.60;;;;;;;27.58;30.82;100380.72;10378170;28;20075;-63
2022/05/15 10:39:49;;;;;;;4.75;2.10;;;;;;;28.14;30.32;100416.91;10393484;28;20086;-63
2022/05/15 10:45:06;;;;;;;6.80;1.85;;;;;;;28.53;28.44;100415.38;10377620;28;20212;-64
2022/05/15 10:50:37;;;;;;;2.38;1.35;;;;;;;28.77;28.26;100403.59;10377942;28;20330;-64
2022/05/15 11:01:45;;;;;;;2.13;1.13;;;;;;;28.95;26.79;100388.91;10379063;28;20045;-64
2022/05/15 11:06:56;;;;;;;4.15;1.50;;;;;;;29.16;27.90;100382.75;10354040;28;20050;-64
2022/05/15 11:12:25;;;;;;;2.28;1.33;;;;;;;29.20;27.48;100383.94;10383944;28;20099;-65
2022/05/15 11:17:53;;;;;;;5.55;2.10;;;;;;;29.49;25.80;100378.47;10377323;28;20132;-63
2022/05/15 11:23:05;;;;;;;3.80;1.15;;;;;;;29.76;26.62;100358.66;10375642;28;20634;-65
2022/05/15 11:28:41;;;;;;;4.53;1.35;;;;;;;29.74;25.12;100358.06;10373637;28;20533;-64
2022/05/15 11:33:43;;;;;;;3.33;1.15;;;;;;;29.53;25.50;100352.25;10375854;28;20073;-63
2022/05/15 11:39:05;;;;;;;4.78;1.15;;;;;;;29.67;25.60;100354.66;10375106;28;20073;-63
2022/05/15 11:44:20;;;;;;;2.45;0.88;;;;;;;29.71;24.92;100342.09;10362938;28;20574;-64
2022/05/15 11:49:33;;;;;;;2.90;1.45;;;;;;;29.72;25.62;100338.28;10374832;28;20060;-63
2022/05/15 11:54:45;;;;;;;2.22;1.08;;;;;;;29.95;24.98;100316.22;10374545;28;20473;-64
2022/05/15 11:59:57;;;;;;;3.15;1.50;;;;;;;30.15;25.13;100326.66;10375052;28;20174;-64
2022/05/15 12:05:05;;;;;;;2.55;1.40;;;;;;;30.06;25.12;100319.13;10377512;28;20125;-63
2022/05/15 12:10:06;;;;;;;2.58;1.95;;;;;;;29.95;24.31;100277.78;10373729;28;20069;-65
2022/05/15 12:15:34;;;;;;;4.30;1.30;;;;;;;29.92;25.15;100315.84;10374140;28;20776;-64
2022/05/15 12:20:42;;;;;;;1.67;1.20;;;;;;;29.53;25.80;100299.28;10372964;28;20140;-64
2022/05/15 12:25:54;;;;;;;5.25;1.27;;;;;;;29.64;24.67;100303.06;10372395;28;20607;-63
2022/05/15 12:30:56;;;;;;;2.92;1.35;;;;;;;29.61;25.01;100299.72;10372314;28;20095;-63
2022/05/15 12:35:58;;;;;;;4.20;1.25;;;;;;;29.86;24.32;100303.16;10372807;28;20559;-64
2022/05/15 12:41:05;;;;;;;4.75;1.42;;;;;;;29.92;24.15;100300.25;10372920;28;20128;-63
2022/05/15 12:46:07;;;;;;;2.90;0.90;;;;;;;29.85;22.74;100294.09;10371026;28;20419;-65
2022/05/15 12:51:09;;;;;;;;;;;;;;;29.99;21.49;100277.28;10373905;28;20060;-64
2022/05/15 12:56:32;;;;;;;3.03;1.10;;;;;;;29.80;21.81;100274.78;10371207;28;19925;-64
2022/05/15 13:01:34;;;;;;;3.05;1.65;;;;;;;29.60;22.85;100239.63;10371934;28;20116;-63
2022/05/15 13:06:39;;;;;;;2.33;0.68;;;;;;;29.80;22.87;100267.38;10385950;28;20045;-65
2022/05/15 13:11:47;;;;;;;4.10;1.27;;;;;;;29.54;23.43;100263.41;10374405;28;20966;-64
2022/05/15 13:16:51;;;;;;;2.75;1.33;;;;;;;29.49;23.59;100263.31;10374790;28;20079;-64
2022/05/15 13:21:54;;;;;;;3.47;1.05;;;;;;;29.50;23.25;100255.91;10370465;28;20076;-63
2022/05/15 13:26:59;;;;;;;2.33;1.08;;;;;;;29.35;23.25;100234.56;10370417;28;20330;-64
2022/05/15 13:32:01;;;;;;;3.33;1.85;;;;;;;29.60;25.18;100245.94;10366917;28;20196;-65
2022/05/15 13:37:05;;;;;;;2.92;1.40;;;;;;;29.46;26.02;100246.56;10385836;28;20080;-65
2022/05/15 13:47:29;;;;;;;;;;;;;;;29.37;25.02;100246.13;10370805;28;20074;-63
2022/05/15 13:52:40;;;;;;;1.13;0.82;;;;;;;28.85;24.11;100198.59;10369818;28;19928;-63
2022/05/15 13:57:57;;;;;;;3.22;1.50;;;;;;;28.82;25.36;100203.75;10372091;28;20687;-64
2022/05/15 14:03:04;;;;;;;4.28;1.58;;;;;;;28.85;23.00;100227.91;10370791;28;20274;-67
2022/05/15 14:08:19;;;;;;;2.28;0.95;;;;;;;28.54;23.33;100222.66;10367963;28;20719;-64
2022/05/15 14:13:21;;;;;;;1.75;0.90;;;;;;;28.11;23.64;100198.50;10369183;28;20156;-64
2022/05/15 14:18:30;;;;;;;2.33;1.20;;;;;;;28.36;24.68;100220.94;10376240;28;20056;-64
2022/05/15 14:23:32;;;;;;;3.22;1.27;;;;;;;28.29;24.12;100216.66;10368243;28;20050;-64
2022/05/15 14:28:33;;;;;;;3.72;0.98;;;;;;;28.14;24.46;100204.31;10371568;28;20331;-64
2022/05/15 14:33:35;;;;;;;4.00;1.20;;;;;;;28.01;24.37;100169.00;10367874;28;20375;-64
2022/05/15 14:38:37;;;;;;;2.97;1.48;;;;;;;28.11;24.85;100169.22;10369207;28;20132;-64
2022/05/15 14:43:40;;;;;;;7.77;2.13;;;;;;;28.19;24.35;100184.44;10378019;28;20053;-63
2022/05/15 14:48:43;;;;;;;1.58;0.93;;;;;;;28.06;23.53;100158.19;10377254;28;20064;-64
2022/05/15 14:53:46;;;;;;;1.50;0.90;;;;;;;27.94;24.50;100182.81;10382136;28;20132;-63
2022/05/15 14:58:51;;;;;;;;;;;;;;;27.87;24.67;100168.41;10397476;28;20053;-64
2022/05/15 15:03:52;;;;;;;2.22;1.77;;;;;;;27.92;25.29;100168.53;10379426;28;22201;-64
2022/05/15 15:08:54;;;;;;;3.67;1.53;;;;;;;27.99;25.23;100163.78;10378245;28;20144;-64
2022/05/15 15:13:59;;;;;;;1.90;1.48;;;;;;;28.09;24.48;100174.13;10362968;28;20041;-64
2022/05/15 15:19:07;;;;;;;9.20;2.30;;;;;;;28.07;24.42;100159.84;10375590;28;20140;-64
2022/05/15 15:24:10;;;;;;;6.18;1.33;;;;;;;27.86;24.22;100170.34;10389658;28;20128;-64
2022/05/15 15:29:13;;;;;;;4.10;1.50;;;;;;;27.72;24.70;100168.91;10374105;28;20068;-64
2022/05/15 15:34:15;;;;;;;3.72;1.13;;;;;;;27.56;24.23;100153.22;10387107;28;20081;-64
2022/05/15 15:39:17;;;;;;;3.47;2.67;;;;;;;27.25;24.37;100114.22;10372625;28;20698;-63
2022/05/15 15:44:19;;;;;;;3.70;1.50;;;;;;;27.44;24.98;100137.69;10373836;28;20730;-64
2022/05/15 15:49:20;;;;;;;;;;;;;;;27.32;24.80;100131.34;10372840;28;20117;-64
2022/05/15 15:54:22;;;;;;;4.75;1.20;;;;;;;27.26;25.54;100132.28;10374002;28;19927;-63
2022/05/15 15:59:25;;;;;;;5.85;1.42;;;;;;;27.21;25.54;100129.44;10372610;28;20063;-63
2022/05/15 16:04:26;;;;;;;1.98;1.05;;;;;;;27.04;25.24;100130.13;10371325;28;20526;-64
2022/05/15 16:09:28;;;;;;;7.57;1.60;;;;;;;27.06;25.86;100127.16;10373197;28;20068;-64
2022/05/15 16:14:29;;;;;;;7.50;1.52;;;;;;;27.05;25.43;100117.31;10373450;28;20068;-65
2022/05/15 16:19:31;;;;;;;5.47;1.33;;;;;;;26.96;25.35;100100.44;10372330;28;20172;-63
2022/05/15 16:24:35;;;;;;;4.82;1.55;;;;;;;26.87;26.43;100096.38;10373812;28;20597;-63
2022/05/15 16:29:41;;;;;;;3.88;1.00;;;;;;;26.85;26.78;100096.63;10371658;28;20136;-64
2022/05/15 16:34:43;;;;;;;4.65;1.23;;;;;;;26.77;26.41;100097.78;10373874;28;20077;-64
2022/05/15 16:39:45;;;;;;;2.60;1.23;;;;;;;26.56;26.18;100090.94;10370941;28;20156;-63
2022/05/15 16:44:48;;;;;;;4.40;1.00;;;;;;;26.44;26.66;100082.72;10371771;28;20064;-64
2022/05/15 16:49:49;;;;;;;2.25;1.10;;;;;;;26.24;26.89;100060.34;10371883;28;20045;-62
2022/05/15 16:54:51;;;;;;;3.05;1.10;;;;;;;26.33;27.17;100085.41;10372012;28;20049;-62
2022/05/15 16:59:52;;;;;;;3.38;1.50;;;;;;;26.24;27.09;100079.44;10370431;28;20057;-63
2022/05/15 17:04:54;;;;;;;3.08;1.52;;;;;;;26.10;27.16;100076.91;10371207;28;20607;-63
2022/05/15 17:09:56;;;;;;;4.28;1.50;;;;;;;26.00;27.97;100070.31;10371101;28;20263;-63
2022/05/15 17:14:58;;;;;;;1.65;1.27;;;;;;;25.89;27.33;100069.19;10370352;28;20241;-63
2022/05/15 17:19:59;;;;;;;2.42;1.77;;;;;;;25.81;28.10;100067.59;10371606;28;20187;-64
2022/05/15 17:25:01;;;;;;;2.17;1.35;;;;;;;25.75;28.31;100058.44;10370626;28;20144;-63
2022/05/15 17:35:23;;;;;;;4.30;1.52;;;;;;;25.61;28.48;100062.38;10370044;28;20690;-63
2022/05/15 17:40:30;;;;;;;2.63;1.70;;;;;;;25.46;28.52;100057.34;10371581;28;20122;-63
2022/05/15 17:45:35;;;;;;;2.70;1.58;;;;;;;25.41;28.76;100057.97;10368570;28;20153;-63
2022/05/15 17:50:40;;;;;;;4.20;2.20;;;;;;;25.15;29.72;100017.41;10370320;28;20045;-62
2022/05/15 17:55:41;;;;;;;3.65;1.30;;;;;;;25.02;29.83;100010.19;10371264;28;20140;-62
2022/05/15 18:00:43;;;;;;;4.30;1.17;;;;;;;25.15;30.23;100048.19;10378088;28;20299;-63
2022/05/15 18:05:44;;;;;;;2.88;1.58;;;;;;;25.05;30.83;100048.69;10375639;28;20049;-63
2022/05/15 18:10:46;;;;;;;4.53;1.85;;;;;;;24.94;30.61;100057.59;10367724;28;20132;-63
2022/05/15 18:15:47;;;;;;;2.85;1.73;;;;;;;24.84;30.34;100051.81;10373957;28;20052;-63
2022/05/15 18:20:48;;;;;;;4.10;1.88;;;;;;;24.72;30.52;100056.31;10379542;28;20058;-63
2022/05/15 18:25:50;;;;;;;2.42;1.52;;;;;;;24.60;30.58;100057.03;10377817;28;20052;-64
2022/05/15 18:30:52;;;;;;;3.58;1.40;;;;;;;24.30;30.91;100027.69;10377934;28;20067;-63
2022/05/15 18:35:54;;;;;;;4.38;1.60;;;;;;;24.35;31.42;100054.25;10377359;28;20051;-63
2022/05/15 18:40:56;;;;;;;4.57;1.92;;;;;;;24.28;31.70;100053.47;10376133;28;20128;-63
2022/05/15 18:45:58;;;;;;;2.72;1.70;;;;;;;24.18;32.02;100054.78;10377923;28;20490;-63
2022/05/15 18:56:19;;;;;;;5.03;3.53;;;;;;;24.02;33.44;100057.16;10377432;28;20045;-62
2022/05/15 19:01:20;;;;;;;5.07;3.00;;;;;;;23.93;33.53;100056.56;10377449;28;20049;-64
2022/05/15 19:06:23;;;;;;;6.05;2.60;;;;;;;23.83;34.00;100054.28;10376311;28;20416;-64
2022/05/15 19:11:25;;;;;;;3.57;1.73;;;;;;;23.72;34.13;100060.38;10378046;28;20127;-64
2022/05/15 19:16:27;;;;;;;4.28;1.95;;;;;;;23.42;34.14;100031.00;10378544;28;20288;-64
2022/05/15 19:21:28;;;;;;;3.45;1.70;;;;;;;23.55;34.87;100060.84;10376188;28;20077;-63
2022/05/15 19:26:30;;;;;;;5.03;1.70;;;;;;;23.44;35.14;100064.22;10375641;28;20053;-63
2022/05/15 19:31:31;;;;;;;3.63;1.60;;;;;;;23.36;35.35;100067.16;10375781;28;20059;-63
2022/05/15 19:36:33;;;;;;;3.97;2.35;;;;;;;23.23;35.60;100073.47;10376317;28;20420;-62
2022/05/15 19:41:35;;;;;;;2.78;1.55;;;;;;;23.03;35.54;100057.16;10374370;28;20055;-63
2022/05/15 19:46:37;;;;;;;3.67;1.83;;;;;;;23.13;35.92;100084.75;10376221;28;20045;-63
2022/05/15 19:51:39;;;;;;;4.20;1.73;;;;;;;23.05;36.08;100090.38;10375981;28;20069;-64
2022/05/15 19:56:44;;;;;;;3.03;1.25;;;;;;;22.95;36.47;100094.34;10376545;28;20144;-64
2022/05/15 20:01:49;;;;;;;4.45;1.73;;;;;;;22.90;36.58;100099.53;10377480;28;20148;-64
2022/05/15 20:12:33;;;;;;;5.57;1.90;;;;;;;22.77;37.66;100096.81;10384187;28;20045;-64
2022/05/15 20:17:39;;;;;;;3.30;2.40;;;;;;;22.50;37.17;100058.81;10374115;28;20130;-64
2022/05/15 20:22:41;;;;;;;3.13;1.67;;;;;;;22.62;37.84;100094.28;10374602;28;20508;-64
2022/05/15 20:27:43;;;;;;;3.08;2.00;;;;;;;22.55;37.58;100094.31;10377088;28;20134;-65
2022/05/15 20:32:45;;;;;;;6.40;2.30;;;;;;;22.50;37.22;100107.63;10384594;28;20120;-63
2022/05/15 20:37:46;;;;;;;5.68;2.47;;;;;;;22.44;37.45;100113.03;10371431;28;20137;-63
2022/05/15 20:42:48;;;;;;;5.40;2.10;;;;;;;22.38;37.97;100111.97;10372406;28;20046;-63
2022/05/15 20:47:49;;;;;;;6.53;2.33;;;;;;;22.32;37.62;100121.75;10372397;28;20988;-63
2022/05/15 20:52:51;;;;;;;2.65;1.75;;;;;;;22.25;37.28;100121.72;10371836;28;20053;-62
2022/05/15 20:57:52;;;;;;;3.03;1.98;;;;;;;22.19;38.72;100117.13;10370659;28;20140;-62
2022/05/15 21:02:54;;;;;;;5.85;1.75;;;;;;;21.98;37.77;100087.41;10371763;28;20074;-61
2022/05/15 21:07:55;;;;;;;2.92;1.90;;;;;;;22.07;38.61;100118.75;10371775;28;20465;-63
2022/05/15 21:13:00;;;;;;;3.45;1.83;;;;;;;22.03;37.95;100115.59;10371674;28;20463;-62
2022/05/15 21:18:04;;;;;;;5.30;2.88;;;;;;;21.99;37.75;100118.91;10373129;28;20144;-63
2022/05/15 21:23:06;;;;;;;3.97;2.45;;;;;;;21.91;38.41;100119.09;10372375;28;20128;-63
2022/05/15 21:28:09;;;;;;;3.22;2.03;;;;;;;21.85;38.12;100110.72;10370539;28;20504;-62
2022/05/15 21:33:12;;;;;;;3.50;2.08;;;;;;;21.80;38.09;100118.63;10371263;28;20479;-64
2022/05/15 21:43:34;;;;;;;6.05;1.88;;;;;;;21.68;38.25;100125.66;10368527;28;20060;-63
2022/05/15 21:48:36;;;;;;;3.15;2.00;;;;;;;21.61;39.25;100124.75;10372368;28;20103;-65
2022/05/15 21:53:37;;;;;;;4.30;1.73;;;;;;;21.51;39.62;100139.50;10378238;28;20065;-64
2022/05/15 21:58:39;;;;;;;4.75;2.45;;;;;;;21.43;40.28;100131.47;10380083;28;20053;-64
2022/05/15 22:03:40;;;;;;;4.60;2.28;;;;;;;21.35;40.61;100134.34;10377856;28;20571;-62
2022/05/15 22:08:42;;;;;;;4.45;2.25;;;;;;;21.07;41.33;100113.50;10379576;28;20592;-64
2022/05/15 22:13:43;;;;;;;3.53;1.80;;;;;;;21.21;41.57;100135.28;10378357;28;20049;-64
2022/05/15 22:18:44;;;;;;;2.97;2.17;;;;;;;21.13;42.76;100138.97;10377500;28;20076;-64
2022/05/15 22:23:46;;;;;;;4.03;2.00;;;;;;;21.06;43.34;100141.59;10376546;28;20835;-64
2022/05/15 22:28:47;;;;;;;4.38;2.17;;;;;;;20.95;43.60;100142.13;10378355;28;20148;-63
2022/05/15 22:33:50;;;;;;;3.15;1.70;;;;;;;20.90;44.10;100140.03;10377683;28;20068;-64
2022/05/15 22:38:51;;;;;;;4.00;2.08;;;;;;;20.82;44.67;100142.84;10378632;28;20048;-63
2022/05/15 22:43:53;;;;;;;2.63;2.00;;;;;;;20.78;44.66;100137.00;10381882;28;20136;-63
2022/05/15 22:48:55;;;;;;;4.80;2.25;;;;;;;20.72;45.28;100147.75;10379460;28;20123;-63
2022/05/15 22:53:56;;;;;;;3.83;2.05;;;;;;;20.66;45.25;100125.03;10379243;28;20073;-63
2022/05/15 22:58:58;;;;;;;7.28;2.35;;;;;;;20.59;45.47;100132.19;10387905;28;20145;-64
2022/05/15 23:03:59;;;;;;;4.00;2.03;;;;;;;20.51;45.56;100125.03;10378514;28;20274;-64
2022/05/15 23:09:01;;;;;;;5.70;2.10;;;;;;;20.43;45.68;100123.31;10375136;28;20146;-64
2022/05/15 23:14:03;;;;;;;5.95;2.50;;;;;;;20.18;45.68;100086.84;10377256;28;20057;-63
2022/05/15 23:19:05;;;;;;;3.95;2.45;;;;;;;20.11;46.17;100087.56;10376294;28;20045;-64
2022/05/15 23:24:07;;;;;;;4.55;2.45;;;;;;;19.85;45.95;100058.41;10373730;28;20144;-64
2022/05/15 23:29:08;;;;;;;4.25;1.95;;;;;;;20.23;46.17;100127.63;10374276;28;20095;-64
2022/05/15 23:34:10;;;;;;;2.65;1.90;;;;;;;20.14;46.16;100114.22;10375541;28;20501;-65
2022/05/15 23:39:11;;;;;;;2.92;2.08;;;;;;;20.08;46.51;100114.97;10373595;28;20444;-64
2022/05/15 23:44:13;;;;;;;5.70;2.15;;;;;;;19.85;46.75;100071.06;10377216;28;20128;-64
2022/05/15 23:49:14;;;;;;;5.32;1.95;;;;;;;20.01;46.29;100110.53;10375052;28;20048;-64
2022/05/15 23:54:16;;;;;;;2.92;2.15;;;;;;;19.72;46.52;100072.53;10377766;28;20077;-63
2022/05/15 23:59:17;;;;;;;3.35;2.13;;;;;;;19.70;46.84;100071.06;10379865;28;20081;-64
